createdAt,value
2022-08-20T00:02:27.866Z,98241.91
2022-08-20T00:05:31.684Z,98248.19
2022-08-20T00:08:34.004Z,98247.34
2022-08-20T00:11:36.522Z,98255.63
2022-08-20T00:14:39.440Z,98252.19
2022-08-20T00:17:43.259Z,98252.50
2022-08-20T00:20:46.284Z,98258.31
2022-08-20T00:23:53.157Z,98257.47
2022-08-20T00:26:54.899Z,98254.34
2022-08-20T00:29:56.679Z,98252.63
2022-08-20T00:33:05.750Z,98252.63
2022-08-20T00:36:09.709Z,98250.78
2022-08-20T00:39:11.344Z,98255.59
2022-08-20T00:42:15.971Z,98254.03
2022-08-20T00:45:21.118Z,98259.44
2022-08-20T00:48:33.164Z,98260.72
2022-08-20T00:51:36.170Z,98258.00
2022-08-20T00:54:39.382Z,98262.00
2022-08-20T00:57:53.271Z,98259.56
2022-08-20T01:01:04.916Z,98268.53
2022-08-20T01:04:13.275Z,98273.94
2022-08-20T01:07:15.328Z,98267.97
2022-08-20T01:10:19.706Z,98271.09
2022-08-20T01:13:23.878Z,98270.81
2022-08-20T01:16:29.456Z,98277.09
2022-08-20T01:19:36.995Z,98282.22
2022-08-20T01:22:59.917Z,98283.50
2022-08-20T01:26:06.372Z,98275.34
2022-08-20T01:29:11.010Z,98278.91
2022-08-20T01:32:12.785Z,98286.31
2022-08-20T01:35:18.554Z,98288.38
2022-08-20T01:38:20.878Z,98293.50
2022-08-20T01:41:29.469Z,98287.38
2022-08-20T01:44:32.534Z,98283.22
2022-08-20T01:47:38.820Z,98275.09
2022-08-20T01:50:49.079Z,98283.22
2022-08-20T01:53:52.758Z,98287.78
2022-08-20T01:56:57.688Z,98290.63
2022-08-20T01:59:59.379Z,98293.19
2022-08-20T02:03:03.377Z,98285.91
2022-08-20T02:06:05.788Z,98285.53
2022-08-20T02:09:11.231Z,98281.25
2022-08-20T02:12:17.884Z,98293.94
2022-08-20T02:15:30.736Z,98282.84
2022-08-20T02:18:37.237Z,98279.75
2022-08-20T02:21:40.613Z,98288.44
2022-08-20T02:24:43.517Z,98284.88
2022-08-20T02:27:48.901Z,98286.03
2022-08-20T02:30:52.096Z,98283.75
2022-08-20T02:34:18.170Z,98281.75
2022-08-20T02:37:18.411Z,98287.53
2022-08-20T02:40:27.334Z,98280.03
2022-08-20T02:43:34.487Z,98299.09
2022-08-20T02:46:36.358Z,98291.72
2022-08-20T02:49:38.350Z,98283.47
2022-08-20T02:52:40.396Z,98286.16
2022-08-20T02:55:53.987Z,98291.44
2022-08-20T02:58:57.282Z,98291.59
2022-08-20T03:02:05.691Z,98293.69
2022-08-20T03:05:08.231Z,98282.97
2022-08-20T03:08:11.493Z,98290.25
2022-08-20T03:11:14.374Z,98280.53
2022-08-20T03:14:17.934Z,98286.66
2022-08-20T03:17:19.919Z,98276.97
2022-08-20T03:20:25.174Z,98286.25
2022-08-20T03:23:29.773Z,98288.53
2022-08-20T03:26:32.037Z,98281.16
2022-08-20T03:29:35.116Z,98278.69
2022-08-20T03:32:42.381Z,98284.81
2022-08-20T03:35:44.462Z,98292.22
2022-08-20T03:38:46.235Z,98288.81
2022-08-20T03:41:49.206Z,98286.38
2022-08-20T03:44:59.098Z,98279.97
2022-08-20T03:48:01.702Z,98291.09
2022-08-20T03:51:03.433Z,98293.50
2022-08-20T03:54:06.018Z,98287.94
2022-08-20T03:57:13.213Z,98289.81
2022-08-20T04:00:20.659Z,98289.81
2022-08-20T04:03:22.451Z,98293.91
2022-08-20T04:06:24.445Z,98295.75
2022-08-20T04:09:26.428Z,98300.06
2022-08-20T04:12:27.918Z,98298.75
2022-08-20T04:15:32.448Z,98306.13
2022-08-20T04:18:34.425Z,98305.16
2022-08-20T04:21:37.814Z,98316.25
2022-08-20T04:24:40.262Z,98325.22
2022-08-20T04:27:42.400Z,98324.63
2022-08-20T04:30:48.933Z,98323.75
2022-08-20T04:33:53.523Z,98333.28
2022-08-20T04:36:55.861Z,98335.88
2022-08-20T04:40:16.311Z,98333.56
2022-08-20T04:43:18.047Z,98330.31
2022-08-20T04:46:21.933Z,98328.88
2022-08-20T04:49:26.645Z,98339.97
2022-08-20T04:52:28.911Z,98337.53
2022-08-20T04:55:31.325Z,98343.91
2022-08-20T04:58:34.437Z,98337.06
2022-08-20T05:01:37.606Z,98340.50
2022-08-20T05:04:39.297Z,98345.63
2022-08-20T05:07:41.501Z,98347.22
2022-08-20T05:10:44.644Z,98342.69
2022-08-20T05:13:46.264Z,98345.13
2022-08-20T05:16:50.971Z,98340.00
2022-08-20T05:19:53.162Z,98345.41
2022-08-20T05:22:56.345Z,98350.81
2022-08-20T05:25:58.082Z,98341.78
2022-08-20T05:28:59.762Z,98350.91
2022-08-20T05:32:03.088Z,98347.75
2022-08-20T05:35:06.175Z,98343.63
2022-08-20T05:38:09.206Z,98348.47
2022-08-20T05:41:13.011Z,98356.47
2022-08-20T05:44:31.270Z,98359.16
2022-08-20T05:47:37.238Z,98357.59
2022-08-20T05:50:45.574Z,98365.63
2022-08-20T05:53:47.430Z,98371.78
2022-08-20T05:56:49.419Z,98362.06
2022-08-20T05:59:51.602Z,98368.13
2022-08-20T06:03:13.463Z,98368.41
2022-08-20T06:06:20.718Z,98368.47
2022-08-20T06:09:37.166Z,98365.50
2022-08-20T06:12:38.950Z,98368.75
2022-08-20T06:15:40.684Z,98384.03
2022-08-20T06:18:43.715Z,98378.00
2022-08-20T06:21:45.584Z,98374.22
2022-08-20T06:24:47.491Z,98376.53
2022-08-20T06:27:49.425Z,98370.88
2022-08-20T06:30:51.475Z,98375.53
2022-08-20T06:33:55.568Z,98382.56
2022-08-20T06:36:57.424Z,98369.66
2022-08-20T06:40:01.089Z,98377.91
2022-08-20T06:43:02.697Z,98375.19
2022-08-20T06:46:06.801Z,98368.53
2022-08-20T06:49:13.202Z,98369.47
2022-08-20T06:52:18.259Z,98369.97
2022-08-20T06:55:20.711Z,98367.16
2022-08-20T06:58:32.815Z,98376.25
2022-08-20T07:01:39.836Z,98376.13
2022-08-20T07:04:43.242Z,98379.56
2022-08-20T07:07:49.092Z,98391.09
2022-08-20T07:10:51.482Z,98389.38
2022-08-20T07:13:53.556Z,98400.66
2022-08-20T07:16:55.156Z,98396.38
2022-08-20T07:19:58.233Z,98388.13
2022-08-20T07:23:00.972Z,98395.00
2022-08-20T07:26:03.756Z,98395.47
2022-08-20T07:29:05.848Z,98394.00
2022-08-20T07:32:26.265Z,98393.97
2022-08-20T07:35:32.407Z,98389.13
2022-08-20T07:38:34.804Z,98387.88
2022-08-20T07:41:36.748Z,98388.13
2022-08-20T07:44:39.839Z,98389.25
2022-08-20T07:47:42.329Z,98389.25
2022-08-20T07:50:50.346Z,98397.66
2022-08-20T07:53:53.117Z,98392.69
2022-08-20T07:56:55.632Z,98406.63
2022-08-20T07:59:59.140Z,98412.03
2022-08-20T08:03:01.132Z,98417.81
2022-08-20T08:06:04.269Z,98416.09
2022-08-20T08:09:07.376Z,98412.97
2022-08-20T08:12:09.143Z,98421.16
2022-08-20T08:15:12.704Z,98431.44
2022-08-20T08:18:16.756Z,98430.44
2022-08-20T08:21:22.450Z,98430.56
2022-08-20T08:24:28.190Z,98433.41
2022-08-20T08:27:34.365Z,98432.94
2022-08-20T08:30:37.783Z,98438.31
2022-08-20T08:33:40.759Z,98434.34
2022-08-20T08:36:47.281Z,98433.94
2022-08-20T08:39:49.305Z,98446.03
2022-08-20T08:42:58.379Z,98441.88
2022-08-20T08:46:01.880Z,98444.31
2022-08-20T08:49:03.907Z,98439.47
2022-08-20T08:52:14.620Z,98453.00
2022-08-20T08:55:32.039Z,98453.16
2022-08-20T08:58:42.773Z,98452.38
2022-08-20T09:01:55.020Z,98460.22
2022-08-20T09:05:01.150Z,98455.53
2022-08-20T09:08:11.676Z,98460.22
2022-08-20T09:11:19.130Z,98454.53
2022-08-20T09:14:20.847Z,98469.97
2022-08-20T09:17:23.422Z,98468.28
2022-08-20T09:20:27.073Z,98468.00
2022-08-20T09:23:31.902Z,98465.75
2022-08-20T09:26:36.377Z,98470.66
2022-08-20T09:29:40.494Z,98464.22
2022-08-20T09:32:42.578Z,98464.38
2022-08-20T09:35:46.697Z,98465.56
2022-08-20T09:38:49.991Z,98463.31
2022-08-20T09:41:51.639Z,98453.63
2022-08-20T09:44:53.373Z,98454.97
2022-08-20T09:48:10.222Z,98455.44
2022-08-20T09:51:12.573Z,98451.19
2022-08-20T09:54:15.595Z,98453.19
2022-08-20T09:57:18.069Z,98460.00
2022-08-20T10:00:19.919Z,98464.66
2022-08-20T10:03:21.909Z,98458.25
2022-08-20T10:06:24.415Z,98450.56
2022-08-20T10:09:27.297Z,98459.97
2022-08-20T10:12:29.381Z,98463.25
2022-08-20T10:15:31.985Z,98458.34
2022-08-20T10:18:34.467Z,98459.78
2022-08-20T10:21:39.267Z,98465.19
2022-08-20T10:24:42.516Z,98459.69
2022-08-20T10:27:44.663Z,98455.31
2022-08-20T10:30:47.269Z,98449.81
2022-08-20T10:33:51.776Z,98461.03
2022-08-20T10:36:53.891Z,98455.91
2022-08-20T10:39:57.656Z,98455.91
2022-08-20T10:42:59.936Z,98451.06
2022-08-20T10:46:01.723Z,98442.78
2022-08-20T10:49:04.014Z,98443.38
2022-08-20T10:52:06.206Z,98442.22
2022-08-20T10:55:09.949Z,98437.78
2022-08-20T10:58:13.619Z,98433.81
2022-08-20T11:01:28.720Z,98451.50
2022-08-20T11:04:35.035Z,98443.63
2022-08-20T11:07:50.661Z,98441.38
2022-08-20T11:10:59.501Z,98451.94
2022-08-20T11:14:01.397Z,98446.09
2022-08-20T11:17:05.234Z,98454.38
2022-08-20T11:20:08.151Z,98453.50
2022-08-20T11:23:12.197Z,98456.94
2022-08-20T11:26:20.308Z,98458.47
2022-08-20T11:29:22.759Z,98454.34
2022-08-20T11:32:28.706Z,98452.91
2022-08-20T11:35:43.525Z,98458.50
2022-08-20T11:38:51.331Z,98466.06
2022-08-20T11:41:54.818Z,98458.34
2022-08-20T11:44:57.122Z,98468.06
2022-08-20T11:48:01.722Z,98467.78
2022-08-20T11:51:04.259Z,98463.50
2022-08-20T11:54:06.224Z,98465.19
2022-08-20T11:57:11.390Z,98461.50
2022-08-20T12:00:15.126Z,98475.09
2022-08-20T12:03:17.712Z,98481.53
2022-08-20T12:06:21.054Z,98472.13
2022-08-20T12:09:24.855Z,98471.50
2022-08-20T12:12:28.039Z,98473.34
2022-08-20T12:15:29.825Z,98478.66
2022-08-20T12:18:32.140Z,98491.63
2022-08-20T12:21:33.897Z,98497.63
2022-08-20T12:24:36.397Z,98488.50
2022-08-20T12:27:39.984Z,98482.34
2022-08-20T12:30:41.913Z,98490.03
2022-08-20T12:33:43.445Z,98486.03
2022-08-20T12:36:47.295Z,98490.16
2022-08-20T12:39:50.919Z,98495.88
2022-08-20T12:42:57.153Z,98501.44
2022-08-20T12:45:59.290Z,98496.03
2022-08-20T12:49:00.873Z,98497.63
2022-08-20T12:52:02.783Z,98500.56
2022-08-20T12:55:05.823Z,98496.41
2022-08-20T12:58:09.433Z,98499.91
2022-08-20T13:01:11.299Z,98497.06
2022-08-20T13:04:13.212Z,98491.50
2022-08-20T13:07:15.064Z,98503.69
2022-08-20T13:10:18.706Z,98496.72
2022-08-20T13:13:21.632Z,98489.06
2022-08-20T13:16:23.166Z,98493.19
2022-08-20T13:19:25.340Z,98481.81
2022-08-20T13:22:27.366Z,98472.56
2022-08-20T13:25:29.197Z,98479.59
2022-08-20T13:28:32.409Z,98471.94
2022-08-20T13:31:34.103Z,98474.97
2022-08-20T13:34:35.884Z,98470.28
2022-08-20T13:37:38.202Z,98465.16
2022-08-20T13:40:39.886Z,98468.59
2022-08-20T13:43:42.945Z,98465.44
2022-08-20T13:46:44.593Z,98460.75
2022-08-20T13:49:46.840Z,98474.03
2022-08-20T13:52:49.342Z,98469.50
2022-08-20T13:55:51.527Z,98464.34
2022-08-20T13:58:54.627Z,98461.78
2022-08-20T14:01:58.288Z,98467.22
2022-08-20T14:04:59.898Z,98462.63
2022-08-20T14:08:05.331Z,98457.78
2022-08-20T14:11:07.161Z,98470.34
2022-08-20T14:14:15.797Z,98461.06
2022-08-20T14:17:18.285Z,98458.38
2022-08-20T14:20:20.884Z,98462.94
2022-08-20T14:23:22.687Z,98461.53
2022-08-20T14:26:24.907Z,98463.34
2022-08-20T14:29:28.304Z,98464.34
2022-08-20T14:32:33.984Z,98461.50
2022-08-20T14:35:35.621Z,98468.25
2022-08-20T14:38:45.121Z,98470.38
2022-08-20T14:41:50.112Z,98473.22
2022-08-20T14:44:53.925Z,98467.53
2022-08-20T14:47:58.900Z,98475.53
2022-08-20T14:51:01.621Z,98467.66
2022-08-20T14:54:03.467Z,98468.34
2022-08-20T14:57:05.716Z,98466.63
2022-08-20T15:00:18.558Z,98465.78
2022-08-20T15:03:23.912Z,98465.38
2022-08-20T15:06:25.969Z,98471.06
2022-08-20T15:09:31.677Z,98467.72
2022-08-20T15:12:35.403Z,98457.44
2022-08-20T15:15:40.439Z,98462.19
2022-08-20T15:18:43.558Z,98457.78
2022-08-20T15:21:45.858Z,98465.63
2022-08-20T15:24:47.580Z,98452.66
2022-08-20T15:27:50.136Z,98455.78
2022-08-20T15:30:53.403Z,98462.81
2022-08-20T15:33:55.070Z,98465.09
2022-08-20T15:37:00.078Z,98467.38
2022-08-20T15:40:03.636Z,98461.94
2022-08-20T15:43:05.603Z,98466.34
2022-08-20T15:46:11.945Z,98464.66
2022-08-20T15:49:13.810Z,98464.66
2022-08-20T15:52:17.141Z,98469.22
2022-08-20T15:55:18.680Z,98475.81
2022-08-20T15:58:25.204Z,98477.78
2022-08-20T16:01:33.200Z,98476.22
2022-08-20T16:04:52.758Z,98480.78
2022-08-20T16:08:04.062Z,98473.78
2022-08-20T16:11:12.591Z,98485.06
2022-08-20T16:14:15.946Z,98484.34
2022-08-20T16:17:25.986Z,98491.06
2022-08-20T16:20:35.695Z,98493.94
2022-08-20T16:23:38.740Z,98502.31
2022-08-20T16:26:46.858Z,98503.47
2022-08-20T16:29:53.873Z,98503.75
2022-08-20T16:33:01.155Z,98502.34
2022-08-20T16:36:07.769Z,98506.59
2022-08-20T16:39:13.021Z,98516.03
2022-08-20T16:42:18.742Z,98520.00
2022-08-20T16:45:24.908Z,98523.00
2022-08-20T16:48:30.986Z,98524.28
2022-08-20T16:51:36.332Z,98509.97
2022-08-20T16:54:37.980Z,98511.97
2022-08-20T16:57:39.773Z,98520.09
2022-08-20T17:00:45.428Z,98514.69
2022-08-20T17:03:50.734Z,98511.25
2022-08-20T17:06:52.787Z,98511.41
2022-08-20T17:10:07.181Z,98513.25
2022-08-20T17:13:23.483Z,98513.53
2022-08-20T17:16:33.089Z,98521.94
2022-08-20T17:19:36.642Z,98527.50
2022-08-20T17:22:43.080Z,98519.78
2022-08-20T17:25:45.834Z,98525.31
2022-08-20T17:28:50.963Z,98528.13
2022-08-20T17:31:53.900Z,98531.41
2022-08-20T17:34:58.009Z,98531.69
2022-08-20T17:38:03.482Z,98535.66
2022-08-20T17:41:11.886Z,98539.50
2022-08-20T17:44:21.751Z,98546.31
2022-08-20T17:47:26.078Z,98541.44
2022-08-20T17:50:31.937Z,98550.09
2022-08-20T17:53:35.718Z,98547.81
2022-08-20T17:56:40.122Z,98537.34
2022-08-20T17:59:59.777Z,98551.16
2022-08-20T18:03:09.968Z,98543.03
2022-08-20T18:06:18.133Z,98551.88
2022-08-20T18:09:25.934Z,98541.81
2022-08-20T18:12:34.085Z,98547.94
2022-08-20T18:15:39.272Z,98543.38
2022-08-20T18:18:56.939Z,98547.09
2022-08-20T18:22:06.482Z,98550.19
2022-08-20T18:25:13.806Z,98547.03
2022-08-20T18:28:19.513Z,98554.44
2022-08-20T18:31:26.481Z,98551.97
2022-08-20T18:34:40.367Z,98563.94
2022-08-20T18:37:43.964Z,98554.38
2022-08-20T18:40:50.961Z,98560.88
2022-08-20T18:44:07.381Z,98561.16
2022-08-20T18:47:20.256Z,98564.84
2022-08-20T18:50:24.980Z,98573.25
2022-08-20T18:53:33.674Z,98568.84
2022-08-20T18:56:41.204Z,98572.63
2022-08-20T18:59:45.248Z,98569.34
2022-08-20T19:02:53.641Z,98568.63
2022-08-20T19:06:07.764Z,98577.22
2022-08-20T19:09:18.378Z,98573.56
2022-08-20T19:12:34.896Z,98575.69
2022-08-20T19:15:40.083Z,98580.25
2022-08-20T19:18:45.492Z,98575.22
2022-08-20T19:21:47.511Z,98576.31
2022-08-20T19:24:53.159Z,98572.16
2022-08-20T19:28:05.505Z,98566.41
2022-08-20T19:31:11.684Z,98568.38
2022-08-20T19:34:20.314Z,98568.63
2022-08-20T19:37:34.977Z,98570.00
2022-08-20T19:40:46.106Z,98565.84
2022-08-20T19:43:48.500Z,98571.38
2022-08-20T19:46:50.213Z,98573.50
2022-08-20T19:49:56.600Z,98577.28
2022-08-20T19:53:03.059Z,98583.34
2022-08-20T19:56:16.957Z,98584.81
2022-08-20T19:59:21.199Z,98587.94
2022-08-20T20:02:28.209Z,98587.28
2022-08-20T20:05:29.897Z,98579.44
2022-08-20T20:08:38.419Z,98569.88
2022-08-20T20:11:45.329Z,98580.16
2022-08-20T20:14:47.846Z,98582.13
2022-08-20T20:17:49.889Z,98582.59
2022-08-20T20:20:57.633Z,98583.59
2022-08-20T20:24:02.873Z,98579.31
2022-08-20T20:27:09.142Z,98587.78
2022-08-20T20:30:20.812Z,98592.34
2022-08-20T20:33:24.550Z,98588.66
2022-08-20T20:36:36.946Z,98582.13
2022-08-20T20:39:40.143Z,98580.03
2022-08-20T20:42:43.372Z,98576.47
2022-08-20T20:45:46.767Z,98577.47
2022-08-20T20:48:50.269Z,98573.03
2022-08-20T20:51:54.194Z,98569.34
2022-08-20T20:55:08.782Z,98574.03
2022-08-20T20:58:13.512Z,98577.97
2022-08-20T21:01:27.326Z,98578.19
2022-08-20T21:04:49.610Z,98578.56
2022-08-20T21:07:52.700Z,98576.47
2022-08-20T21:10:54.486Z,98582.84
2022-08-20T21:13:57.608Z,98583.69
2022-08-20T21:17:00.858Z,98587.09
2022-08-20T21:20:11.161Z,98583.41
2022-08-20T21:23:13.653Z,98595.00
2022-08-20T21:26:15.738Z,98591.78
2022-08-20T21:29:22.954Z,98591.50
2022-08-20T21:32:26.771Z,98588.53
2022-08-20T21:35:28.938Z,98584.47
2022-08-20T21:38:31.346Z,98584.06
2022-08-20T21:41:33.410Z,98585.16
2022-08-20T21:44:40.040Z,98586.03
2022-08-20T21:47:51.646Z,98600.94
2022-08-20T21:50:53.558Z,98596.03
2022-08-20T21:53:55.551Z,98592.78
2022-08-20T21:56:59.252Z,98596.94
2022-08-20T22:00:07.458Z,98604.75
2022-08-20T22:03:09.338Z,98593.53
2022-08-20T22:06:18.786Z,98601.00
2022-08-20T22:09:20.660Z,98596.16
2022-08-20T22:12:26.781Z,98593.56
2022-08-20T22:15:31.327Z,98586.47
2022-08-20T22:18:33.380Z,98586.47
2022-08-20T22:21:36.078Z,98579.69
2022-08-20T22:24:41.237Z,98588.19
2022-08-20T22:27:43.116Z,98592.84
2022-08-20T22:30:46.528Z,98587.75
2022-08-20T22:33:48.476Z,98582.47
2022-08-20T22:36:54.140Z,98583.47
2022-08-20T22:39:55.889Z,98581.94
2022-08-20T22:42:57.899Z,98578.50
2022-08-20T22:46:01.497Z,98582.25
2022-08-20T22:49:03.694Z,98582.72
2022-08-20T22:52:05.754Z,98585.97
2022-08-20T22:55:09.649Z,98584.78
2022-08-20T22:58:11.614Z,98581.22
2022-08-20T23:01:15.890Z,98581.47
2022-08-20T23:04:22.269Z,98587.81
2022-08-20T23:07:23.925Z,98573.03
2022-08-20T23:10:26.257Z,98573.13
2022-08-20T23:13:28.872Z,98568.88
2022-08-20T23:16:32.642Z,98570.72
2022-08-20T23:19:35.373Z,98560.50
2022-08-20T23:22:37.495Z,98558.00
2022-08-20T23:25:40.427Z,98561.69
2022-08-20T23:28:42.169Z,98563.19
2022-08-20T23:31:45.094Z,98555.16
2022-08-20T23:34:49.185Z,98564.09
2022-08-20T23:37:53.058Z,98561.50
2022-08-20T23:40:55.629Z,98568.84
2022-08-20T23:43:58.249Z,98564.31
2022-08-20T23:47:02.553Z,98570.38
2022-08-20T23:50:04.758Z,98569.72
2022-08-20T23:53:06.703Z,98566.06
2022-08-20T23:56:08.432Z,98561.66
2022-08-20T23:59:10.681Z,98561.22
